createdAt,value
2022-08-19T00:00:20.101Z,29.85
2022-08-19T00:02:50.062Z,29.91
2022-08-19T00:05:17.918Z,29.86
2022-08-19T00:07:45.160Z,29.71
2022-08-19T00:10:13.445Z,29.94
2022-08-19T00:12:46.989Z,30.00
2022-08-19T00:15:15.847Z,30.06
2022-08-19T00:17:43.972Z,29.99
2022-08-19T00:20:12.090Z,29.93
2022-08-19T00:22:39.841Z,30.01
2022-08-19T00:25:07.441Z,30.00
2022-08-19T00:27:34.708Z,29.98
2022-08-19T00:30:04.284Z,29.97
2022-08-19T00:32:31.471Z,29.93
2022-08-19T00:35:00.136Z,29.62
2022-08-19T00:37:27.861Z,29.81
2022-08-19T00:39:55.062Z,29.74
2022-08-19T00:42:22.690Z,29.75
2022-08-19T00:44:51.569Z,29.72
2022-08-19T00:47:18.785Z,29.56
2022-08-19T00:49:54.476Z,29.59
2022-08-19T00:52:23.994Z,29.61
2022-08-19T00:54:52.895Z,29.59
2022-08-19T00:57:21.319Z,29.26
2022-08-19T01:00:00.416Z,29.31
2022-08-19T01:02:29.536Z,29.51
2022-08-19T01:04:56.967Z,29.59
2022-08-19T01:07:24.165Z,29.54
2022-08-19T01:09:51.392Z,29.60
2022-08-19T01:12:18.861Z,29.53
2022-08-19T01:14:47.522Z,29.52
2022-08-19T01:17:14.736Z,29.61
2022-08-19T01:19:44.326Z,29.62
2022-08-19T01:22:27.360Z,29.65
2022-08-19T01:24:58.319Z,29.44
2022-08-19T01:27:26.661Z,29.60
2022-08-19T01:29:56.681Z,29.45
2022-08-19T01:32:32.446Z,29.54
2022-08-19T01:35:02.841Z,29.65
2022-08-19T01:37:31.570Z,29.61
2022-08-19T01:39:58.978Z,29.46
2022-08-19T01:42:30.075Z,29.46
2022-08-19T01:44:58.232Z,29.63
2022-08-19T01:47:25.455Z,29.47
2022-08-19T01:49:52.678Z,29.56
2022-08-19T01:52:20.537Z,29.56
2022-08-19T01:54:47.734Z,29.56
2022-08-19T01:57:14.929Z,29.50
2022-08-19T01:59:42.710Z,29.44
2022-08-19T02:02:10.185Z,29.12
2022-08-19T02:04:39.682Z,29.11
2022-08-19T02:07:07.339Z,29.11
2022-08-19T02:09:35.092Z,29.36
2022-08-19T02:12:02.585Z,29.47
2022-08-19T02:14:29.777Z,29.32
2022-08-19T02:16:57.053Z,29.34
2022-08-19T02:19:24.503Z,29.44
2022-08-19T02:21:51.668Z,29.26
2022-08-19T02:24:18.810Z,29.44
2022-08-19T02:26:46.246Z,29.38
2022-08-19T02:29:13.417Z,29.45
2022-08-19T02:31:40.595Z,29.48
2022-08-19T02:34:08.037Z,29.48
2022-08-19T02:36:35.279Z,29.48
2022-08-19T02:39:02.452Z,29.44
2022-08-19T02:41:31.622Z,29.42
2022-08-19T02:44:26.524Z,29.41
2022-08-19T02:46:47.485Z,29.38
2022-08-19T02:49:17.537Z,29.46
2022-08-19T02:51:45.442Z,29.43
2022-08-19T02:54:13.522Z,29.37
2022-08-19T02:56:41.580Z,29.20
2022-08-19T02:59:11.955Z,29.34
2022-08-19T03:01:41.686Z,29.42
2022-08-19T03:04:09.926Z,29.44
2022-08-19T03:06:38.127Z,29.37
2022-08-19T03:09:05.599Z,29.37
2022-08-19T03:11:33.072Z,29.31
2022-08-19T03:14:01.104Z,29.41
2022-08-19T03:16:29.346Z,29.36
2022-08-19T03:19:01.751Z,29.27
2022-08-19T03:21:30.731Z,29.29
2022-08-19T03:23:58.751Z,29.35
2022-08-19T03:26:26.113Z,29.27
2022-08-19T03:28:58.289Z,29.21
2022-08-19T03:31:44.389Z,29.22
2022-08-19T03:34:16.291Z,29.31
2022-08-19T03:36:43.434Z,29.28
2022-08-19T03:39:10.716Z,29.20
2022-08-19T03:41:45.343Z,29.27
2022-08-19T03:44:18.452Z,29.29
2022-08-19T03:46:50.175Z,29.25
2022-08-19T03:49:18.360Z,29.09
2022-08-19T03:51:46.729Z,29.15
2022-08-19T03:54:14.879Z,29.06
2022-08-19T03:56:42.561Z,29.09
2022-08-19T03:59:12.703Z,28.99
2022-08-19T04:01:39.885Z,29.13
2022-08-19T04:04:07.337Z,28.83
2022-08-19T04:06:38.733Z,28.81
2022-08-19T04:09:08.418Z,28.77
2022-08-19T04:11:43.984Z,28.86
2022-08-19T04:14:13.285Z,29.00
2022-08-19T04:16:40.469Z,28.97
2022-08-19T04:19:07.781Z,29.03
2022-08-19T04:21:35.268Z,29.03
2022-08-19T04:24:03.843Z,28.99
2022-08-19T04:26:35.712Z,29.01
2022-08-19T04:29:09.224Z,29.00
2022-08-19T04:31:39.061Z,29.07
2022-08-19T04:34:07.354Z,29.10
2022-08-19T04:36:35.325Z,29.13
2022-08-19T04:39:09.738Z,29.14
2022-08-19T04:41:55.861Z,29.11
2022-08-19T04:44:23.056Z,29.05
2022-08-19T04:46:51.965Z,29.12
2022-08-19T04:49:23.279Z,29.11
2022-08-19T04:51:52.307Z,29.13
2022-08-19T04:54:33.774Z,28.92
2022-08-19T04:57:07.665Z,28.97
2022-08-19T04:59:36.127Z,29.02
2022-08-19T05:02:04.119Z,29.08
2022-08-19T05:04:33.215Z,29.05
2022-08-19T05:07:01.946Z,29.17
2022-08-19T05:09:42.124Z,29.12
2022-08-19T05:12:17.901Z,29.09
2022-08-19T05:14:46.586Z,29.05
2022-08-19T05:17:33.556Z,29.00
2022-08-19T05:20:20.536Z,29.15
2022-08-19T05:22:48.031Z,29.24
2022-08-19T05:25:19.570Z,29.14
2022-08-19T05:27:47.041Z,29.15
2022-08-19T05:30:14.237Z,29.30
2022-08-19T05:32:41.868Z,29.41
2022-08-19T05:35:09.306Z,29.30
2022-08-19T05:37:36.533Z,29.41
2022-08-19T05:40:04.595Z,29.43
2022-08-19T05:42:31.937Z,29.49
2022-08-19T05:44:59.134Z,29.64
2022-08-19T05:47:26.623Z,29.60
2022-08-19T05:49:53.832Z,29.53
2022-08-19T05:52:25.869Z,29.62
2022-08-19T05:54:57.185Z,29.62
2022-08-19T05:57:25.003Z,29.56
2022-08-19T05:59:58.330Z,29.49
2022-08-19T06:02:27.936Z,29.57
2022-08-19T06:04:55.702Z,29.50
2022-08-19T06:07:23.004Z,29.76
2022-08-19T06:09:59.181Z,29.63
2022-08-19T06:12:34.144Z,29.78
2022-08-19T06:15:05.210Z,29.87
2022-08-19T06:17:32.773Z,29.69
2022-08-19T06:20:00.419Z,29.34
2022-08-19T06:22:28.225Z,29.56
2022-08-19T06:24:56.425Z,29.86
2022-08-19T06:27:23.876Z,30.04
2022-08-19T06:29:51.165Z,30.30
2022-08-19T06:32:19.744Z,29.96
2022-08-19T06:34:47.054Z,30.28
2022-08-19T06:37:14.526Z,30.45
2022-08-19T06:39:42.868Z,30.48
2022-08-19T06:42:12.654Z,30.68
2022-08-19T06:44:43.351Z,30.93
2022-08-19T06:47:14.859Z,31.00
2022-08-19T06:49:51.313Z,31.19
2022-08-19T06:52:18.752Z,31.44
2022-08-19T06:54:55.504Z,31.61
2022-08-19T06:57:25.086Z,31.72
2022-08-19T06:59:52.538Z,32.04
2022-08-19T07:02:20.495Z,32.19
2022-08-19T07:04:48.154Z,32.24
2022-08-19T07:07:21.848Z,32.51
2022-08-19T07:09:54.404Z,32.74
2022-08-19T07:12:35.646Z,32.83
2022-08-19T07:15:04.794Z,33.15
2022-08-19T07:17:34.647Z,33.24
2022-08-19T07:20:05.124Z,33.06
2022-08-19T07:22:35.021Z,33.33
2022-08-19T07:25:04.862Z,33.57
2022-08-19T07:27:33.673Z,33.73
2022-08-19T07:30:01.330Z,33.86
2022-08-19T07:32:28.615Z,33.91
2022-08-19T07:34:56.622Z,34.04
2022-08-19T07:37:28.340Z,34.11
2022-08-19T07:39:58.671Z,34.37
2022-08-19T07:42:26.582Z,34.73
2022-08-19T07:44:53.752Z,34.92
2022-08-19T07:47:49.529Z,35.01
2022-08-19T07:50:10.203Z,35.02
2022-08-19T07:52:39.633Z,34.89
2022-08-19T07:55:08.089Z,35.44
2022-08-19T07:57:55.979Z,35.50
2022-08-19T08:00:24.638Z,35.56
2022-08-19T08:02:55.645Z,35.38
2022-08-19T08:05:43.867Z,35.49
2022-08-19T08:08:30.698Z,35.33
2022-08-19T08:10:57.923Z,35.68
2022-08-19T08:13:25.634Z,35.66
2022-08-19T08:15:56.028Z,35.99
2022-08-19T08:18:27.913Z,35.92
2022-08-19T08:20:56.138Z,35.88
2022-08-19T08:23:23.554Z,35.74
2022-08-19T08:25:50.744Z,35.51
2022-08-19T08:28:18.546Z,36.06
2022-08-19T08:30:49.138Z,36.21
2022-08-19T08:33:18.751Z,36.15
2022-08-19T08:36:00.628Z,36.30
2022-08-19T08:38:29.905Z,36.21
2022-08-19T08:41:10.617Z,36.71
2022-08-19T08:43:38.587Z,36.73
2022-08-19T08:46:07.509Z,36.86
2022-08-19T08:48:40.480Z,36.72
2022-08-19T08:51:12.604Z,36.96
2022-08-19T08:53:41.968Z,37.21
2022-08-19T08:56:13.488Z,37.26
2022-08-19T08:58:44.916Z,37.41
2022-08-19T09:01:12.762Z,37.47
2022-08-19T09:03:43.182Z,37.59
2022-08-19T09:06:17.461Z,37.63
2022-08-19T09:08:50.213Z,37.11
2022-08-19T09:11:43.013Z,37.86
2022-08-19T09:14:34.928Z,37.75
2022-08-19T09:17:08.587Z,37.97
2022-08-19T09:19:56.304Z,38.00
2022-08-19T09:22:26.100Z,37.90
2022-08-19T09:24:55.302Z,38.07
2022-08-19T09:27:41.896Z,38.23
2022-08-19T09:30:18.434Z,38.33
2022-08-19T09:32:46.555Z,38.08
2022-08-19T09:35:14.419Z,38.34
2022-08-19T09:37:42.000Z,38.31
2022-08-19T09:40:11.962Z,38.24
2022-08-19T09:42:39.639Z,38.04
2022-08-19T09:45:18.843Z,38.23
2022-08-19T09:47:46.305Z,38.21
2022-08-19T09:50:16.641Z,37.78
2022-08-19T09:52:55.134Z,37.88
2022-08-19T09:55:31.080Z,38.20
2022-08-19T09:58:01.911Z,38.53
2022-08-19T10:00:30.030Z,38.48
2022-08-19T10:02:58.015Z,38.53
2022-08-19T10:05:44.067Z,38.36
2022-08-19T10:08:13.705Z,38.41
2022-08-19T10:10:46.755Z,38.69
2022-08-19T10:13:19.658Z,38.49
2022-08-19T10:15:48.180Z,38.59
2022-08-19T10:18:19.308Z,38.70
2022-08-19T10:20:51.309Z,38.64
2022-08-19T10:23:21.145Z,39.05
2022-08-19T10:25:48.866Z,39.30
2022-08-19T10:28:16.213Z,39.46
2022-08-19T10:30:55.188Z,39.20
2022-08-19T10:33:38.608Z,39.08
2022-08-19T10:36:11.825Z,39.23
2022-08-19T10:38:39.114Z,39.27
2022-08-19T10:41:20.485Z,39.28
2022-08-19T10:43:48.699Z,39.09
2022-08-19T10:46:16.799Z,39.47
2022-08-19T10:48:44.616Z,39.43
2022-08-19T10:51:30.940Z,39.21
2022-08-19T10:53:59.209Z,39.25
2022-08-19T10:56:45.549Z,39.68
2022-08-19T10:59:16.293Z,39.64
2022-08-19T11:01:44.294Z,39.51
2022-08-19T11:04:12.265Z,39.48
2022-08-19T11:06:39.843Z,39.42
2022-08-19T11:09:07.310Z,39.37
2022-08-19T11:11:40.470Z,39.73
2022-08-19T11:14:09.070Z,39.56
2022-08-19T11:16:36.258Z,39.77
2022-08-19T11:19:03.657Z,39.91
2022-08-19T11:21:33.236Z,40.02
2022-08-19T11:24:02.291Z,39.99
2022-08-19T11:26:30.437Z,40.20
2022-08-19T11:28:58.490Z,39.77
2022-08-19T11:31:28.967Z,39.79
2022-08-19T11:33:57.420Z,39.64
2022-08-19T11:36:24.948Z,39.85
2022-08-19T11:38:52.172Z,39.50
2022-08-19T11:41:20.775Z,39.24
2022-08-19T11:43:48.326Z,39.47
2022-08-19T11:46:15.994Z,39.71
2022-08-19T11:48:43.390Z,39.95
2022-08-19T11:51:13.118Z,39.84
2022-08-19T11:53:40.381Z,39.46
2022-08-19T11:56:07.942Z,39.38
2022-08-19T11:58:35.734Z,39.55
2022-08-19T12:01:06.430Z,39.44
2022-08-19T12:03:34.958Z,39.02
2022-08-19T12:06:06.395Z,38.88
2022-08-19T12:08:34.189Z,39.09
2022-08-19T12:11:02.526Z,38.90
2022-08-19T12:13:31.085Z,38.87
2022-08-19T12:15:59.453Z,38.80
2022-08-19T12:18:26.768Z,38.78
2022-08-19T12:20:55.623Z,39.15
2022-08-19T12:23:24.091Z,39.06
2022-08-19T12:25:52.656Z,39.08
2022-08-19T12:28:20.956Z,38.59
2022-08-19T12:30:49.151Z,38.66
2022-08-19T12:33:18.018Z,38.60
2022-08-19T12:35:47.639Z,38.42
2022-08-19T12:38:15.648Z,38.58
2022-08-19T12:40:43.031Z,38.76
2022-08-19T12:43:10.630Z,38.68
2022-08-19T12:45:38.643Z,38.93
2022-08-19T12:48:33.843Z,38.87
2022-08-19T12:50:55.656Z,39.12
2022-08-19T12:53:23.212Z,39.37
2022-08-19T12:55:56.926Z,39.05
2022-08-19T12:58:27.310Z,39.36
2022-08-19T13:00:54.922Z,39.27
2022-08-19T13:03:23.599Z,39.55
2022-08-19T13:05:51.500Z,39.65
2022-08-19T13:08:18.678Z,39.53
2022-08-19T13:10:46.024Z,39.37
2022-08-19T13:13:13.538Z,39.26
2022-08-19T13:15:41.469Z,39.22
2022-08-19T13:18:10.091Z,39.14
2022-08-19T13:20:37.967Z,39.22
2022-08-19T13:23:05.708Z,39.10
2022-08-19T13:25:33.273Z,38.94
2022-08-19T13:28:00.956Z,38.87
2022-08-19T13:30:47.054Z,38.61
2022-08-19T13:33:16.610Z,38.63
2022-08-19T13:35:45.245Z,38.19
2022-08-19T13:38:12.857Z,37.52
2022-08-19T13:40:41.347Z,37.49
2022-08-19T13:43:17.433Z,37.55
2022-08-19T13:45:50.950Z,37.72
2022-08-19T13:48:19.735Z,37.49
2022-08-19T13:50:48.375Z,37.35
2022-08-19T13:53:16.270Z,37.52
2022-08-19T13:55:43.821Z,37.47
2022-08-19T13:58:11.713Z,37.37
2022-08-19T14:00:40.332Z,37.16
2022-08-19T14:03:09.408Z,36.95
2022-08-19T14:05:37.207Z,36.57
2022-08-19T14:08:04.616Z,36.61
2022-08-19T14:10:32.957Z,36.18
2022-08-19T14:13:01.228Z,36.61
2022-08-19T14:15:29.673Z,36.69
2022-08-19T14:17:58.587Z,36.67
2022-08-19T14:20:26.472Z,36.66
2022-08-19T14:22:54.002Z,36.25
2022-08-19T14:25:22.697Z,36.26
2022-08-19T14:27:51.102Z,35.75
2022-08-19T14:30:19.736Z,35.59
2022-08-19T14:32:47.521Z,35.54
2022-08-19T14:35:16.257Z,35.32
2022-08-19T14:37:46.195Z,34.67
2022-08-19T14:40:16.046Z,35.28
2022-08-19T14:42:46.433Z,35.31
2022-08-19T14:45:14.444Z,35.17
2022-08-19T14:47:42.705Z,35.12
2022-08-19T14:50:17.866Z,34.96
2022-08-19T14:52:46.573Z,34.80
2022-08-19T14:55:13.791Z,35.01
2022-08-19T14:57:44.125Z,34.76
2022-08-19T15:00:14.789Z,35.10
2022-08-19T15:02:42.381Z,35.00
2022-08-19T15:05:09.667Z,34.96
2022-08-19T15:07:42.019Z,34.88
2022-08-19T15:10:10.557Z,34.82
2022-08-19T15:12:39.423Z,34.60
2022-08-19T15:15:07.600Z,34.53
2022-08-19T15:17:45.337Z,34.60
2022-08-19T15:20:23.764Z,34.29
2022-08-19T15:22:51.138Z,34.39
2022-08-19T15:25:19.881Z,34.60
2022-08-19T15:27:49.356Z,34.44
2022-08-19T15:30:20.209Z,34.63
2022-08-19T15:32:49.163Z,34.72
2022-08-19T15:35:16.614Z,34.47
2022-08-19T15:37:44.595Z,34.53
2022-08-19T15:40:12.417Z,34.69
2022-08-19T15:42:42.361Z,34.51
2022-08-19T15:45:10.238Z,34.10
2022-08-19T15:47:39.059Z,34.30
2022-08-19T15:50:32.632Z,34.16
2022-08-19T15:53:03.435Z,33.95
2022-08-19T15:55:34.680Z,34.26
2022-08-19T15:58:28.469Z,34.17
2022-08-19T16:01:20.852Z,34.08
2022-08-19T16:04:13.718Z,33.97
2022-08-19T16:06:44.491Z,33.84
2022-08-19T16:09:13.102Z,33.97
2022-08-19T16:11:45.624Z,33.95
2022-08-19T16:14:14.667Z,34.05
2022-08-19T16:16:41.899Z,34.11
2022-08-19T16:19:10.660Z,34.25
2022-08-19T16:21:41.838Z,34.07
2022-08-19T16:24:10.585Z,34.00
2022-08-19T16:26:37.845Z,34.06
2022-08-19T16:29:08.855Z,34.09
2022-08-19T16:31:39.939Z,34.12
2022-08-19T16:34:07.444Z,33.91
2022-08-19T16:36:34.623Z,33.59
2022-08-19T16:39:01.842Z,33.28
2022-08-19T16:41:29.338Z,32.59
2022-08-19T16:43:56.544Z,32.84
2022-08-19T16:46:27.109Z,33.17
2022-08-19T16:48:54.709Z,33.25
2022-08-19T16:51:22.951Z,33.08
2022-08-19T16:53:52.702Z,31.81
2022-08-19T16:56:21.237Z,32.53
2022-08-19T16:58:50.199Z,32.07
2022-08-19T17:01:17.726Z,32.31
2022-08-19T17:03:45.212Z,32.37
2022-08-19T17:06:18.440Z,32.28
2022-08-19T17:08:49.903Z,31.60
2022-08-19T17:11:20.185Z,31.69
2022-08-19T17:13:48.406Z,31.40
2022-08-19T17:16:17.039Z,31.71
2022-08-19T17:18:44.286Z,32.14
2022-08-19T17:21:13.281Z,32.00
2022-08-19T17:23:43.689Z,31.72
2022-08-19T17:26:18.380Z,31.55
2022-08-19T17:28:49.088Z,31.11
2022-08-19T17:31:16.636Z,31.09
2022-08-19T17:33:48.604Z,30.78
2022-08-19T17:36:19.727Z,30.66
2022-08-19T17:38:46.961Z,30.74
2022-08-19T17:41:14.342Z,30.28
2022-08-19T17:43:43.749Z,30.29
2022-08-19T17:46:17.641Z,30.56
2022-08-19T17:48:51.804Z,30.28
2022-08-19T17:51:22.029Z,30.86
2022-08-19T17:53:50.841Z,30.61
2022-08-19T17:56:18.524Z,30.85
2022-08-19T17:58:57.645Z,30.80
2022-08-19T18:01:50.638Z,30.92
2022-08-19T18:04:28.217Z,29.97
2022-08-19T18:06:57.075Z,28.73
2022-08-19T18:09:28.766Z,28.20
2022-08-19T18:12:06.155Z,28.00
2022-08-19T18:14:35.019Z,27.76
2022-08-19T18:17:05.876Z,28.51
2022-08-19T18:19:42.101Z,28.94
2022-08-19T18:22:35.455Z,28.99
2022-08-19T18:25:08.117Z,28.67
2022-08-19T18:27:35.562Z,28.13
2022-08-19T18:30:03.829Z,28.57
2022-08-19T18:32:34.380Z,28.61
2022-08-19T18:35:02.194Z,28.19
2022-08-19T18:37:29.388Z,28.19
2022-08-19T18:40:15.407Z,28.20
2022-08-19T18:43:04.560Z,28.13
2022-08-19T18:45:50.359Z,27.70
2022-08-19T18:48:36.758Z,27.63
2022-08-19T18:51:03.994Z,27.29
2022-08-19T18:53:32.318Z,26.58
2022-08-19T18:55:59.891Z,26.23
2022-08-19T18:58:32.416Z,27.03
2022-08-19T19:01:00.812Z,27.19
2022-08-19T19:03:28.031Z,27.29
2022-08-19T19:05:55.317Z,27.57
2022-08-19T19:08:27.091Z,27.64
2022-08-19T19:10:55.794Z,27.60
2022-08-19T19:13:23.292Z,27.57
2022-08-19T19:15:50.498Z,27.63
2022-08-19T19:18:18.030Z,27.59
2022-08-19T19:20:45.537Z,27.62
2022-08-19T19:23:15.852Z,27.68
2022-08-19T19:25:49.771Z,27.49
2022-08-19T19:28:25.819Z,27.66
2022-08-19T19:30:57.489Z,27.51
2022-08-19T19:33:26.086Z,27.50
2022-08-19T19:35:53.908Z,26.79
2022-08-19T19:38:22.703Z,27.22
2022-08-19T19:40:54.830Z,27.24
2022-08-19T19:43:22.239Z,27.36
2022-08-19T19:45:49.785Z,27.13
2022-08-19T19:48:17.051Z,27.36
2022-08-19T19:50:44.612Z,27.18
2022-08-19T19:53:15.123Z,27.01
2022-08-19T19:55:42.524Z,27.23
2022-08-19T19:58:09.724Z,27.43
2022-08-19T20:00:37.224Z,27.36
2022-08-19T20:03:04.960Z,27.33
2022-08-19T20:05:32.189Z,27.37
2022-08-19T20:08:19.002Z,27.04
2022-08-19T20:10:46.947Z,25.92
2022-08-19T20:13:16.956Z,25.88
2022-08-19T20:15:44.200Z,25.97
2022-08-19T20:18:13.404Z,25.82
2022-08-19T20:20:40.897Z,25.55
2022-08-19T20:23:08.523Z,25.03
2022-08-19T20:25:38.084Z,24.76
2022-08-19T20:28:05.770Z,24.37
2022-08-19T20:30:33.578Z,24.79
2022-08-19T20:33:07.052Z,24.73
2022-08-19T20:35:36.389Z,24.07
2022-08-19T20:38:04.888Z,24.55
2022-08-19T20:40:34.165Z,24.65
2022-08-19T20:43:02.489Z,24.71
2022-08-19T20:45:33.631Z,24.92
2022-08-19T20:48:02.846Z,24.86
2022-08-19T20:50:32.182Z,24.99
2022-08-19T20:53:09.680Z,25.43
2022-08-19T20:55:37.262Z,25.50
2022-08-19T20:58:04.507Z,25.89
2022-08-19T21:00:31.692Z,25.90
2022-08-19T21:02:59.215Z,26.06
2022-08-19T21:05:30.450Z,26.14
2022-08-19T21:07:58.148Z,26.30
2022-08-19T21:10:26.392Z,26.39
2022-08-19T21:12:53.634Z,26.43
2022-08-19T21:15:21.165Z,26.49
2022-08-19T21:17:48.851Z,26.62
2022-08-19T21:20:16.125Z,26.74
2022-08-19T21:22:43.289Z,26.62
2022-08-19T21:25:10.975Z,26.68
2022-08-19T21:27:38.323Z,26.70
2022-08-19T21:30:05.833Z,26.54
2022-08-19T21:32:33.322Z,26.70
2022-08-19T21:35:02.133Z,26.82
2022-08-19T21:37:29.736Z,26.46
2022-08-19T21:39:57.781Z,26.73
2022-08-19T21:42:25.460Z,26.56
2022-08-19T21:44:52.693Z,26.64
2022-08-19T21:47:20.359Z,26.61
2022-08-19T21:49:47.819Z,26.56
2022-08-19T21:52:20.625Z,26.53
2022-08-19T21:54:48.092Z,26.54
2022-08-19T21:57:15.436Z,26.62
2022-08-19T21:59:44.162Z,26.73
2022-08-19T22:02:20.395Z,26.72
2022-08-19T22:04:52.353Z,26.79
2022-08-19T22:07:20.334Z,26.71
2022-08-19T22:09:47.822Z,26.65
2022-08-19T22:12:23.324Z,26.64
2022-08-19T22:14:51.741Z,26.64
2022-08-19T22:17:20.076Z,26.72
2022-08-19T22:19:47.663Z,26.77
2022-08-19T22:22:22.201Z,26.39
2022-08-19T22:24:50.157Z,25.32
2022-08-19T22:27:17.453Z,25.88
2022-08-19T22:29:44.628Z,26.34
2022-08-19T22:32:27.015Z,26.41
2022-08-19T22:34:57.542Z,26.66
2022-08-19T22:37:25.411Z,26.68
2022-08-19T22:39:53.314Z,26.80
2022-08-19T22:42:20.870Z,26.65
2022-08-19T22:44:48.828Z,26.65
2022-08-19T22:47:20.534Z,26.51
2022-08-19T22:49:48.240Z,26.49
2022-08-19T22:52:19.045Z,26.69
2022-08-19T22:54:47.118Z,26.60
2022-08-19T22:57:14.682Z,26.63
2022-08-19T22:59:42.166Z,26.36
2022-08-19T23:02:09.475Z,26.36
2022-08-19T23:04:36.925Z,26.65
2022-08-19T23:07:05.444Z,26.33
2022-08-19T23:09:32.926Z,26.54
2022-08-19T23:12:00.762Z,26.69
2022-08-19T23:14:28.280Z,26.60
2022-08-19T23:16:58.836Z,26.68
2022-08-19T23:19:26.932Z,26.66
2022-08-19T23:21:54.199Z,26.50
2022-08-19T23:24:21.641Z,26.34
2022-08-19T23:27:07.798Z,26.50
2022-08-19T23:29:53.810Z,26.57
2022-08-19T23:32:21.466Z,26.54
2022-08-19T23:34:48.652Z,26.66
2022-08-19T23:37:16.095Z,26.61
2022-08-19T23:39:43.643Z,26.73
2022-08-19T23:42:12.848Z,26.70
2022-08-19T23:44:51.255Z,26.62
2022-08-19T23:47:21.451Z,26.57
2022-08-19T23:49:48.990Z,26.59
2022-08-19T23:52:16.172Z,26.64
2022-08-19T23:54:44.109Z,26.49
2022-08-19T23:57:14.725Z,26.51
2022-08-19T23:59:42.803Z,26.43
